createdAt,value
2023-03-24T00:00:14.221Z,12.50
2023-03-24T00:02:42.181Z,12.60
2023-03-24T00:05:13.536Z,12.60
2023-03-24T00:07:40.498Z,12.60
2023-03-24T00:10:09.337Z,12.60
2023-03-24T00:12:38.884Z,12.60
2023-03-24T00:15:07.210Z,12.60
2023-03-24T00:17:36.188Z,12.70
2023-03-24T00:20:07.726Z,12.60
2023-03-24T00:22:35.369Z,12.60
2023-03-24T00:25:04.130Z,12.60
2023-03-24T00:27:31.107Z,12.60
2023-03-24T00:29:59.513Z,12.60
2023-03-24T00:32:27.345Z,12.50
2023-03-24T00:34:54.342Z,12.50
2023-03-24T00:37:21.234Z,12.50
2023-03-24T00:39:48.724Z,12.40
2023-03-24T00:42:15.619Z,12.40
2023-03-24T00:44:44.890Z,12.40
2023-03-24T00:47:11.727Z,12.40
2023-03-24T00:49:48.047Z,12.30
2023-03-24T00:52:18.144Z,12.30
2023-03-24T00:54:46.002Z,12.20
2023-03-24T00:57:14.618Z,12.20
2023-03-24T00:59:48.610Z,12.20
2023-03-24T01:02:24.816Z,12.10
2023-03-24T01:04:56.519Z,12.10
2023-03-24T01:07:26.973Z,12.10
2023-03-24T01:09:59.929Z,12.10
2023-03-24T01:12:31.894Z,12.20
2023-03-24T01:14:59.546Z,12.20
2023-03-24T01:17:26.659Z,12.10
2023-03-24T01:19:53.980Z,12.20
2023-03-24T01:22:21.090Z,12.10
2023-03-24T01:24:48.578Z,12.20
2023-03-24T01:27:15.317Z,12.20
2023-03-24T01:29:42.522Z,12.20
2023-03-24T01:32:09.397Z,12.30
2023-03-24T01:34:36.164Z,12.30
2023-03-24T01:37:02.869Z,12.30
2023-03-24T01:39:30.051Z,12.30
2023-03-24T01:41:56.855Z,12.30
2023-03-24T01:44:34.471Z,12.30
2023-03-24T01:47:02.198Z,12.30
2023-03-24T01:49:32.910Z,12.40
2023-03-24T01:52:00.976Z,12.40
2023-03-24T01:54:30.479Z,12.50
2023-03-24T01:57:03.963Z,12.50
2023-03-24T01:59:32.021Z,12.60
2023-03-24T02:02:02.782Z,12.60
2023-03-24T02:04:34.764Z,12.60
2023-03-24T02:07:04.488Z,12.60
2023-03-24T02:09:31.182Z,12.60
2023-03-24T02:11:58.012Z,12.50
2023-03-24T02:14:24.704Z,12.60
2023-03-24T02:16:51.393Z,12.50
2023-03-24T02:19:39.532Z,12.50
2023-03-24T02:22:14.816Z,12.50
2023-03-24T02:25:11.916Z,12.40
2023-03-24T02:27:58.224Z,12.40
2023-03-24T02:30:54.144Z,12.40
2023-03-24T02:33:39.233Z,12.40
2023-03-24T02:36:12.164Z,12.40
2023-03-24T02:38:46.125Z,12.30
2023-03-24T02:41:22.109Z,12.30
2023-03-24T02:43:55.622Z,12.30
2023-03-24T02:46:29.681Z,12.30
2023-03-24T02:49:11.721Z,12.20
2023-03-24T02:51:47.273Z,12.20
2023-03-24T02:54:32.636Z,12.10
2023-03-24T02:57:04.384Z,12.10
2023-03-24T02:59:34.423Z,12.10
2023-03-24T03:02:03.809Z,12.10
2023-03-24T03:04:37.097Z,12.10
2023-03-24T03:07:09.607Z,12.10
2023-03-24T03:09:38.759Z,12.00
2023-03-24T03:12:07.512Z,12.00
2023-03-24T03:14:36.745Z,12.00
2023-03-24T03:17:09.436Z,12.00
2023-03-24T03:19:41.337Z,12.00
2023-03-24T03:22:13.102Z,12.00
2023-03-24T03:24:41.193Z,12.00
2023-03-24T03:27:14.847Z,12.00
2023-03-24T03:29:44.087Z,12.10
2023-03-24T03:32:13.361Z,12.00
2023-03-24T03:34:52.635Z,12.00
2023-03-24T03:37:24.042Z,12.00
2023-03-24T03:40:02.002Z,12.10
2023-03-24T03:42:28.890Z,12.10
2023-03-24T03:44:55.843Z,12.30
2023-03-24T03:47:23.267Z,12.50
2023-03-24T03:49:50.398Z,12.60
2023-03-24T03:52:17.505Z,12.70
2023-03-24T03:54:44.492Z,12.70
2023-03-24T03:57:12.567Z,12.80
2023-03-24T03:59:39.844Z,12.90
2023-03-24T04:02:26.961Z,13.00
2023-03-24T04:05:05.159Z,13.00
2023-03-24T04:07:33.721Z,13.00
2023-03-24T04:10:13.498Z,12.90
2023-03-24T04:12:43.316Z,13.00
2023-03-24T04:15:10.047Z,12.90
2023-03-24T04:17:51.990Z,12.90
2023-03-24T04:20:18.719Z,12.80
2023-03-24T04:23:00.954Z,12.80
2023-03-24T04:25:30.558Z,12.90
2023-03-24T04:28:04.226Z,12.80
2023-03-24T04:30:51.258Z,12.90
2023-03-24T04:33:23.282Z,12.90
2023-03-24T04:35:54.046Z,12.90
2023-03-24T04:38:25.902Z,12.90
2023-03-24T04:40:55.597Z,12.80
2023-03-24T04:43:25.030Z,12.80
2023-03-24T04:45:52.550Z,12.80
2023-03-24T04:48:19.991Z,12.80
2023-03-24T04:51:04.910Z,12.80
2023-03-24T04:53:31.611Z,12.70
2023-03-24T04:56:19.087Z,12.70
2023-03-24T04:58:45.871Z,12.60
2023-03-24T05:01:14.194Z,12.60
2023-03-24T05:03:42.103Z,12.60
2023-03-24T05:06:13.980Z,12.60
2023-03-24T05:08:41.484Z,12.60
2023-03-24T05:11:08.318Z,12.60
2023-03-24T05:13:34.943Z,12.60
2023-03-24T05:16:01.738Z,12.60
2023-03-24T05:18:29.135Z,12.60
2023-03-24T05:20:55.930Z,12.60
2023-03-24T05:23:22.700Z,12.60
2023-03-24T05:25:49.525Z,12.60
2023-03-24T05:28:16.425Z,12.60
2023-03-24T05:30:43.278Z,12.60
2023-03-24T05:33:10.023Z,12.70
2023-03-24T05:35:37.022Z,12.70
2023-03-24T05:38:03.809Z,12.70
2023-03-24T05:40:30.714Z,12.70
2023-03-24T05:42:57.357Z,12.80
2023-03-24T05:45:25.511Z,12.80
2023-03-24T05:47:52.213Z,12.80
2023-03-24T05:50:18.935Z,12.80
2023-03-24T05:52:46.219Z,12.70
2023-03-24T05:55:12.936Z,12.70
2023-03-24T05:57:39.561Z,12.80
2023-03-24T06:00:16.295Z,12.80
2023-03-24T06:02:43.883Z,12.80
2023-03-24T06:05:11.025Z,12.90
2023-03-24T06:07:39.303Z,12.90
2023-03-24T06:10:07.702Z,12.90
2023-03-24T06:12:34.549Z,12.90
2023-03-24T06:15:01.400Z,12.90
2023-03-24T06:17:31.556Z,13.00
2023-03-24T06:20:04.366Z,13.00
2023-03-24T06:22:34.512Z,13.00
2023-03-24T06:25:02.568Z,13.00
2023-03-24T06:27:30.347Z,12.90
2023-03-24T06:29:57.485Z,12.90
2023-03-24T06:32:24.859Z,12.90
2023-03-24T06:34:52.073Z,12.90
2023-03-24T06:37:19.731Z,12.80
2023-03-24T06:39:46.706Z,12.90
2023-03-24T06:42:13.467Z,12.90
2023-03-24T06:44:40.202Z,12.90
2023-03-24T06:47:06.910Z,12.90
2023-03-24T06:49:35.120Z,13.00
2023-03-24T06:52:01.902Z,13.00
2023-03-24T06:54:28.861Z,13.10
2023-03-24T06:56:56.613Z,13.20
2023-03-24T06:59:23.873Z,13.30
2023-03-24T07:01:51.997Z,13.40
2023-03-24T07:04:19.183Z,13.40
2023-03-24T07:06:59.847Z,13.40
2023-03-24T07:09:32.771Z,13.40
2023-03-24T07:11:59.436Z,13.40
2023-03-24T07:14:26.592Z,13.40
2023-03-24T07:16:53.749Z,13.40
2023-03-24T07:19:22.949Z,13.30
2023-03-24T07:21:50.309Z,13.30
2023-03-24T07:24:17.642Z,13.20
2023-03-24T07:26:44.407Z,13.10
2023-03-24T07:29:11.718Z,12.90
2023-03-24T07:31:39.591Z,12.80
2023-03-24T07:34:06.803Z,12.70
2023-03-24T07:36:33.519Z,12.60
2023-03-24T07:39:00.737Z,12.50
2023-03-24T07:41:30.044Z,12.50
2023-03-24T07:43:57.621Z,12.50
2023-03-24T07:46:24.377Z,12.40
2023-03-24T07:48:51.343Z,12.30
2023-03-24T07:51:19.946Z,12.30
2023-03-24T07:53:47.780Z,12.20
2023-03-24T07:56:15.084Z,12.20
2023-03-24T07:58:42.300Z,12.20
2023-03-24T08:01:10.484Z,12.20
2023-03-24T08:03:37.518Z,12.30
2023-03-24T08:06:04.795Z,12.30
2023-03-24T08:08:35.152Z,12.40
2023-03-24T08:11:02.082Z,12.30
2023-03-24T08:13:28.796Z,12.30
2023-03-24T08:15:55.594Z,12.30
2023-03-24T08:18:24.591Z,12.30
2023-03-24T08:20:55.085Z,12.30
2023-03-24T08:23:22.065Z,12.30
2023-03-24T08:25:49.849Z,12.30
2023-03-24T08:28:17.066Z,12.30
2023-03-24T08:30:43.829Z,12.30
2023-03-24T08:33:12.538Z,12.30
2023-03-24T08:35:39.538Z,12.30
2023-03-24T08:38:07.399Z,12.30
2023-03-24T08:40:34.794Z,12.30
2023-03-24T08:43:03.137Z,12.40
2023-03-24T09:08:44.375Z,11.60
2023-03-24T09:11:18.165Z,11.70
2023-03-24T09:13:44.950Z,11.80
2023-03-24T09:16:12.043Z,11.80
2023-03-24T09:18:39.233Z,11.80
2023-03-24T09:21:07.406Z,11.80
2023-03-24T09:23:34.641Z,11.80
2023-03-24T09:26:01.948Z,11.80
2023-03-24T09:28:28.756Z,11.80
2023-03-24T09:30:59.325Z,11.80
2023-03-24T09:33:26.458Z,11.80
2023-03-24T09:35:53.900Z,11.80
2023-03-24T09:38:21.454Z,11.80
2023-03-24T09:40:51.230Z,11.80
2023-03-24T09:43:37.439Z,11.80
2023-03-24T09:46:06.596Z,11.80
2023-03-24T09:48:35.650Z,11.80
2023-03-24T09:51:09.093Z,11.80
2023-03-24T09:53:39.010Z,11.70
2023-03-24T09:56:16.277Z,11.60
2023-03-24T09:58:43.694Z,11.60
2023-03-24T10:01:15.538Z,11.60
2023-03-24T10:03:43.781Z,11.60
2023-03-24T10:06:15.279Z,11.60
2023-03-24T10:08:43.115Z,11.50
2023-03-24T10:11:25.308Z,11.50
2023-03-24T10:13:56.663Z,11.50
2023-03-24T10:16:33.094Z,11.50
2023-03-24T10:19:18.710Z,11.50
2023-03-24T10:21:53.241Z,11.60
2023-03-24T10:24:44.633Z,11.70
2023-03-24T10:27:30.156Z,11.80
2023-03-24T10:30:02.467Z,12.10
2023-03-24T10:32:29.955Z,12.60
2023-03-24T10:34:58.751Z,13.00
2023-03-24T10:37:25.442Z,13.10
2023-03-24T10:39:52.314Z,13.00
2023-03-24T10:42:22.757Z,12.80
2023-03-24T10:44:51.027Z,12.80
2023-03-24T10:47:20.418Z,12.90
2023-03-24T10:49:52.522Z,12.80
2023-03-24T10:52:19.814Z,12.80
2023-03-24T10:54:57.486Z,12.80
2023-03-24T10:57:24.807Z,12.80
2023-03-24T10:59:54.771Z,12.80
2023-03-24T11:02:30.109Z,12.90
2023-03-24T11:05:02.321Z,13.00
2023-03-24T11:07:31.866Z,13.10
2023-03-24T11:10:00.986Z,13.10
2023-03-24T11:12:48.362Z,13.10
2023-03-24T11:15:21.109Z,13.10
2023-03-24T11:17:53.069Z,13.10
2023-03-24T11:20:31.270Z,13.30
2023-03-24T11:23:06.641Z,13.40
2023-03-24T11:25:35.415Z,13.50
2023-03-24T11:28:10.052Z,13.50
2023-03-24T11:30:46.565Z,13.50
2023-03-24T11:33:19.248Z,13.80
2023-03-24T11:35:50.375Z,13.90
2023-03-24T11:38:30.726Z,14.00
2023-03-24T11:40:58.858Z,14.20
2023-03-24T11:43:27.175Z,14.20
2023-03-24T11:46:23.561Z,14.30
2023-03-24T11:48:55.169Z,14.60
2023-03-24T11:51:42.200Z,14.60
2023-03-24T11:54:12.976Z,14.60
2023-03-24T11:56:39.621Z,14.70
2023-03-24T11:59:30.117Z,14.80
2023-03-24T12:02:20.375Z,14.80
2023-03-24T12:04:57.269Z,15.00
2023-03-24T12:07:43.216Z,15.20
2023-03-24T12:10:34.317Z,15.10
2023-03-24T12:13:31.751Z,15.20
2023-03-24T12:16:15.565Z,15.50
2023-03-24T12:19:01.151Z,15.60
2023-03-24T12:21:34.098Z,15.70
2023-03-24T12:24:08.525Z,16.00
2023-03-24T12:26:35.708Z,16.00
2023-03-24T12:29:27.784Z,15.70
2023-03-24T12:32:00.288Z,15.70
2023-03-24T12:34:39.354Z,16.00
2023-03-24T12:37:14.854Z,16.00
2023-03-24T12:39:50.493Z,16.00
2023-03-24T12:42:19.444Z,16.00
2023-03-24T12:44:49.293Z,16.30
2023-03-24T12:47:27.324Z,16.40
2023-03-24T12:50:12.822Z,16.10
2023-03-24T12:52:42.813Z,16.40
2023-03-24T12:55:41.934Z,16.50
2023-03-24T12:58:14.806Z,16.70
2023-03-24T13:00:44.961Z,16.70
2023-03-24T13:03:14.476Z,16.90
2023-03-24T13:05:43.764Z,16.70
2023-03-24T13:08:17.587Z,16.30
2023-03-24T13:10:47.343Z,16.90
2023-03-24T13:13:17.820Z,16.70
2023-03-24T13:15:56.468Z,16.70
2023-03-24T13:18:37.703Z,17.50
2023-03-24T13:21:07.460Z,18.20
2023-03-24T13:23:43.603Z,18.00
2023-03-24T13:26:16.470Z,18.20
2023-03-24T13:28:47.166Z,18.40
2023-03-24T13:31:14.336Z,18.20
2023-03-24T13:33:44.194Z,18.00
2023-03-24T13:36:28.969Z,18.30
2023-03-24T13:38:57.828Z,18.80
2023-03-24T13:41:27.179Z,19.10
2023-03-24T13:44:02.250Z,18.90
2023-03-24T13:46:29.048Z,18.90
2023-03-24T13:48:56.466Z,18.90
2023-03-24T13:51:27.203Z,19.20
2023-03-24T13:53:56.049Z,19.10
2023-03-24T13:56:25.574Z,19.20
2023-03-24T13:58:58.317Z,19.50
2023-03-24T14:01:33.361Z,19.60
2023-03-24T14:04:18.607Z,19.70
2023-03-24T14:06:50.199Z,19.90
2023-03-24T14:09:43.290Z,19.90
2023-03-24T14:12:16.884Z,19.50
2023-03-24T14:15:02.470Z,19.60
2023-03-24T14:17:29.172Z,19.70
2023-03-24T14:19:58.752Z,19.40
2023-03-24T14:22:30.513Z,18.60
2023-03-24T14:24:59.591Z,18.00
2023-03-24T14:27:29.399Z,17.50
2023-03-24T14:30:00.407Z,17.20
2023-03-24T14:32:27.186Z,17.10
2023-03-24T14:35:00.143Z,17.00
2023-03-24T14:37:27.799Z,16.80
2023-03-24T14:39:57.458Z,16.70
2023-03-24T14:42:33.707Z,16.60
2023-03-24T14:45:00.321Z,16.60
2023-03-24T14:58:54.247Z,16.20
2023-03-24T15:01:22.324Z,16.10
2023-03-24T15:03:55.889Z,16.10
2023-03-24T15:06:23.400Z,16.00
2023-03-24T15:08:51.337Z,16.00
2023-03-24T15:11:38.199Z,16.00
2023-03-24T15:14:05.561Z,16.00
2023-03-24T15:16:36.716Z,16.00
2023-03-24T16:22:52.586Z,15.80
2023-03-24T16:25:19.448Z,15.80
2023-03-24T16:27:46.656Z,15.80
2023-03-24T16:30:18.742Z,15.80
2023-03-24T16:32:46.224Z,15.80
2023-03-24T16:35:13.238Z,15.70
2023-03-24T16:37:40.050Z,15.80
2023-03-24T16:40:15.148Z,16.10
2023-03-24T16:42:42.109Z,16.20
2023-03-24T16:45:09.108Z,16.40
2023-03-24T16:47:35.942Z,16.30
2023-03-24T16:50:03.252Z,16.10
2023-03-24T16:52:30.345Z,15.90
2023-03-24T16:54:57.144Z,15.70
2023-03-24T16:57:24.039Z,15.50
2023-03-24T16:59:51.126Z,15.40
2023-03-24T17:02:18.225Z,15.30
2023-03-24T17:04:45.308Z,15.30
2023-03-24T17:07:11.965Z,15.30
2023-03-24T17:09:39.015Z,15.20
2023-03-24T17:12:06.322Z,15.10
2023-03-24T17:14:33.096Z,15.00
2023-03-24T17:17:02.922Z,14.90
2023-03-24T17:19:29.757Z,14.80
2023-03-24T17:21:59.710Z,14.70
2023-03-24T17:24:26.653Z,14.60
2023-03-24T17:26:53.571Z,14.50
2023-03-24T17:29:20.757Z,14.40
2023-03-24T17:31:47.770Z,14.30
2023-03-24T17:36:44.889Z,14.10
2023-03-24T17:39:15.655Z,14.00
2023-03-24T17:41:42.696Z,14.00
2023-03-24T17:44:09.755Z,14.00
2023-03-24T17:46:36.775Z,14.00
2023-03-24T17:49:04.151Z,13.90
2023-03-24T17:51:31.219Z,13.80
2023-03-24T17:53:58.742Z,13.70
2023-03-24T17:56:25.847Z,13.50
2023-03-24T17:58:56.508Z,13.40
2023-03-24T18:01:23.924Z,13.40
2023-03-24T18:03:51.120Z,13.40
2023-03-24T18:06:18.018Z,13.30
2023-03-24T18:08:44.915Z,13.40
2023-03-24T18:11:15.106Z,13.30
2023-03-24T18:13:42.934Z,13.30
2023-03-24T18:16:20.665Z,13.30
2023-03-24T18:46:50.562Z,12.60
2023-03-24T18:49:17.349Z,12.50
2023-03-24T18:51:45.255Z,12.50
2023-03-24T18:54:12.370Z,12.50
2023-03-24T18:56:39.265Z,12.50
2023-03-24T18:59:06.080Z,12.50
2023-03-24T19:01:33.181Z,12.50
2023-03-24T19:04:00.161Z,12.60
2023-03-24T19:06:31.097Z,12.60
2023-03-24T19:08:59.165Z,12.60
2023-03-24T19:11:26.316Z,12.60
2023-03-24T19:13:54.966Z,12.60
2023-03-24T19:16:21.785Z,12.50
2023-03-24T19:18:50.456Z,12.50
2023-03-24T19:21:17.882Z,12.60
2023-03-24T19:23:45.170Z,12.60
2023-03-24T19:26:12.217Z,12.60
2023-03-24T19:28:39.032Z,12.70
2023-03-24T19:31:07.766Z,12.80
2023-03-24T19:33:35.712Z,12.70
2023-03-24T19:36:02.468Z,12.70
2023-03-24T19:38:29.274Z,12.70
2023-03-24T19:40:56.083Z,12.60
2023-03-24T19:43:23.134Z,12.60
2023-03-24T19:45:53.510Z,12.60
2023-03-24T19:48:20.563Z,12.50
2023-03-24T19:50:49.769Z,12.40
2023-03-24T19:53:16.852Z,12.30
2023-03-24T19:55:43.605Z,12.30
2023-03-24T19:58:10.222Z,12.20
2023-03-24T20:00:37.139Z,12.20
2023-03-24T20:03:04.120Z,12.20
2023-03-24T20:05:31.164Z,12.10
2023-03-24T20:08:00.020Z,12.00
2023-03-24T20:10:27.383Z,11.90
2023-03-24T20:12:54.244Z,11.80
2023-03-24T20:15:21.857Z,11.70
2023-03-24T20:17:48.885Z,11.60
2023-03-24T20:20:15.625Z,11.50
2023-03-24T20:22:44.744Z,11.40
2023-03-24T20:25:12.945Z,11.40
2023-03-24T20:27:39.914Z,11.30
2023-03-24T20:30:08.222Z,11.30
2023-03-24T20:32:34.996Z,11.30
2023-03-24T20:35:01.738Z,11.20
2023-03-24T20:37:30.516Z,11.10
2023-03-24T20:39:57.222Z,11.10
2023-03-24T20:42:24.543Z,11.10
2023-03-24T20:44:51.313Z,11.10
2023-03-24T20:47:19.539Z,11.10
2023-03-24T20:49:46.344Z,11.10
2023-03-24T20:52:14.361Z,11.00
2023-03-24T20:54:41.649Z,11.00
2023-03-24T20:57:11.915Z,11.10
2023-03-24T20:59:39.714Z,11.10
2023-03-24T21:02:06.653Z,11.10
2023-03-24T21:04:33.625Z,11.20
2023-03-24T21:07:00.437Z,11.20
2023-03-24T21:09:27.853Z,11.20
2023-03-24T21:11:54.573Z,11.20
2023-03-24T21:14:21.418Z,11.20
2023-03-24T21:16:48.444Z,11.20
2023-03-24T21:19:16.021Z,11.20
2023-03-24T21:21:49.413Z,11.20
2023-03-24T21:24:16.641Z,11.20
2023-03-24T21:26:45.769Z,11.10
2023-03-24T21:29:12.600Z,11.20
2023-03-24T21:31:41.693Z,11.20
2023-03-24T21:34:08.544Z,11.30
2023-03-24T21:36:38.217Z,11.30
2023-03-24T21:39:06.852Z,11.20
2023-03-24T21:41:33.621Z,11.00
2023-03-24T21:44:00.780Z,10.80
2023-03-24T21:46:27.978Z,10.60
2023-03-24T21:49:00.859Z,10.40
2023-03-24T21:51:30.718Z,10.30
2023-03-24T21:54:03.645Z,10.20
2023-03-24T21:56:32.250Z,10.10
2023-03-24T21:58:59.027Z,10.00
2023-03-24T22:01:26.255Z,10.10
2023-03-24T22:03:54.526Z,10.00
2023-03-24T22:06:24.349Z,9.80
2023-03-24T22:08:53.370Z,9.70
2023-03-24T22:11:20.157Z,9.60
2023-03-24T22:13:47.072Z,9.50
2023-03-24T22:16:14.320Z,9.50
2023-03-24T22:18:41.374Z,9.40
2023-03-24T22:21:08.632Z,9.40
2023-03-24T22:23:36.774Z,9.40
2023-03-24T22:26:05.088Z,9.40
2023-03-24T22:28:32.697Z,9.40
2023-03-24T22:31:06.916Z,9.40
2023-03-24T22:33:33.897Z,9.40
2023-03-24T22:36:01.065Z,9.40
2023-03-24T22:38:28.966Z,9.40
2023-03-24T22:41:00.155Z,9.40
2023-03-24T22:43:27.118Z,9.40
2023-03-24T22:45:54.012Z,9.40
2023-03-24T22:48:20.904Z,9.40
2023-03-24T22:50:48.826Z,9.40
2023-03-24T22:53:15.655Z,9.50
2023-03-24T22:55:44.575Z,9.50
2023-03-24T22:58:13.069Z,9.30
2023-03-24T23:00:44.286Z,9.20
2023-03-24T23:03:11.392Z,9.20
2023-03-24T23:05:42.167Z,9.20
2023-03-24T23:08:09.641Z,9.20
2023-03-24T23:10:36.897Z,9.10
2023-03-24T23:13:04.527Z,9.00
2023-03-24T23:15:32.071Z,9.00
2023-03-24T23:17:59.458Z,8.90
2023-03-24T23:20:28.188Z,8.90
2023-03-24T23:22:55.648Z,8.80
2023-03-24T23:25:22.773Z,8.70
2023-03-24T23:27:49.604Z,8.70
2023-03-24T23:30:16.561Z,8.60
2023-03-24T23:32:44.214Z,8.60
2023-03-24T23:35:11.934Z,8.50
2023-03-24T23:37:39.707Z,8.40
2023-03-24T23:40:13.027Z,8.40
2023-03-24T23:42:44.870Z,8.40
2023-03-24T23:45:14.857Z,8.30
2023-03-24T23:47:42.872Z,8.30
2023-03-24T23:50:10.079Z,8.30
2023-03-24T23:52:37.395Z,8.30
2023-03-24T23:55:05.107Z,8.20
2023-03-24T23:57:31.879Z,8.20
2023-03-24T23:59:59.880Z,8.20
